createdAt,value
2023-05-14T00:00:05.981Z,2102.00
2023-05-14T00:01:05.995Z,2074.00
2023-05-14T00:02:06.081Z,2055.00
2023-05-14T00:03:06.247Z,2041.00
2023-05-14T00:04:06.151Z,2032.00
2023-05-14T00:05:06.122Z,2026.00
2023-05-14T00:06:06.144Z,2024.00
2023-05-14T00:07:06.168Z,2008.00
2023-05-14T00:08:06.211Z,1985.00
2023-05-14T00:09:06.261Z,1930.00
2023-05-14T00:10:06.242Z,1916.00
2023-05-14T00:11:06.267Z,1925.00
2023-05-14T00:12:06.283Z,1924.00
2023-05-14T00:13:06.305Z,1939.00
2023-05-14T00:14:06.354Z,1926.00
2023-05-14T00:15:06.384Z,1911.00
2023-05-14T00:16:06.452Z,1922.00
2023-05-14T00:17:06.418Z,1912.00
2023-05-14T00:18:06.470Z,1923.00
2023-05-14T00:19:06.590Z,1927.00
2023-05-14T00:20:06.511Z,1927.00
2023-05-14T00:21:06.523Z,1940.00
2023-05-14T00:22:06.570Z,1956.00
2023-05-14T00:23:06.614Z,1972.00
2023-05-14T00:24:06.656Z,1970.00
2023-05-14T00:25:06.637Z,1957.00
2023-05-14T00:26:06.664Z,1954.00
2023-05-14T00:27:06.706Z,1967.00
2023-05-14T00:28:06.743Z,1985.00
2023-05-14T00:29:06.772Z,2001.00
2023-05-14T00:30:06.838Z,1990.00
2023-05-14T00:31:06.840Z,1985.00
2023-05-14T00:32:06.855Z,1981.00
2023-05-14T00:33:06.941Z,1967.00
2023-05-14T00:34:06.887Z,1945.00
2023-05-14T00:35:06.914Z,1947.00
2023-05-14T00:36:06.960Z,1921.00
2023-05-14T00:37:06.988Z,1933.00
2023-05-14T00:38:07.008Z,1900.00
2023-05-14T00:39:07.043Z,1884.00
2023-05-14T00:40:07.072Z,1860.00
2023-05-14T00:41:07.106Z,1861.00
2023-05-14T00:42:07.126Z,1828.00
2023-05-14T00:43:07.145Z,1827.00
2023-05-14T00:44:07.171Z,1818.00
2023-05-14T00:45:07.189Z,1830.00
2023-05-14T00:46:07.251Z,1840.00
2023-05-14T00:47:07.341Z,1854.00
2023-05-14T00:48:07.340Z,1843.00
2023-05-14T00:49:07.301Z,1854.00
2023-05-14T00:50:07.349Z,1865.00
2023-05-14T00:51:07.376Z,1890.00
2023-05-14T00:52:07.405Z,1870.00
2023-05-14T00:53:07.425Z,1906.00
2023-05-14T00:54:07.451Z,1889.00
2023-05-14T00:55:07.533Z,1886.00
2023-05-14T00:56:07.515Z,1879.00
2023-05-14T00:57:07.545Z,1862.00
2023-05-14T00:58:07.598Z,1882.00
2023-05-14T00:59:07.616Z,1871.00
2023-05-14T01:00:07.636Z,1861.00
2023-05-14T01:01:07.724Z,1834.00
2023-05-14T01:02:07.698Z,1837.00
2023-05-14T01:03:07.934Z,1838.00
2023-05-14T01:04:07.876Z,1803.00
2023-05-14T01:05:07.789Z,1799.00
2023-05-14T01:06:07.829Z,1808.00
2023-05-14T01:07:07.837Z,1817.00
2023-05-14T01:08:07.873Z,1808.00
2023-05-14T01:09:07.920Z,1797.00
2023-05-14T01:10:07.950Z,1794.00
2023-05-14T01:11:07.973Z,1823.00
2023-05-14T01:12:08.029Z,1799.00
2023-05-14T01:13:08.045Z,1810.00
2023-05-14T01:14:08.096Z,1797.00
2023-05-14T01:15:08.108Z,1812.00
2023-05-14T01:16:08.152Z,1817.00
2023-05-14T01:17:08.174Z,1806.00
2023-05-14T01:18:08.268Z,1810.00
2023-05-14T01:19:08.333Z,1820.00
2023-05-14T01:20:08.288Z,1833.00
2023-05-14T01:21:08.325Z,1838.00
2023-05-14T01:22:08.372Z,1833.00
2023-05-14T01:23:08.398Z,1840.00
2023-05-14T01:24:08.445Z,1837.00
2023-05-14T01:25:08.474Z,1831.00
2023-05-14T01:26:08.483Z,1837.00
2023-05-14T01:27:08.526Z,1837.00
2023-05-14T01:28:08.550Z,1849.00
2023-05-14T01:29:08.606Z,1843.00
2023-05-14T01:30:08.635Z,1851.00
2023-05-14T01:31:08.669Z,1860.00
2023-05-14T01:32:08.758Z,1860.00
2023-05-14T01:33:08.731Z,1851.00
2023-05-14T01:34:08.766Z,1840.00
2023-05-14T01:35:08.804Z,1848.00
2023-05-14T01:36:08.812Z,1837.00
2023-05-14T01:37:08.843Z,1837.00
2023-05-14T01:38:08.895Z,1855.00
2023-05-14T01:39:08.919Z,1857.00
2023-05-14T01:40:08.960Z,1844.00
2023-05-14T01:41:08.984Z,1855.00
2023-05-14T01:42:09.014Z,1863.00
2023-05-14T01:43:09.128Z,1851.00
2023-05-14T01:44:09.068Z,1850.00
2023-05-14T01:45:09.126Z,1852.00
2023-05-14T01:46:09.197Z,1854.00
2023-05-14T01:47:09.171Z,1838.00
2023-05-14T01:48:09.280Z,1830.00
2023-05-14T01:49:09.233Z,1818.00
2023-05-14T01:50:09.287Z,1818.00
2023-05-14T01:51:09.302Z,1835.00
2023-05-14T01:52:09.338Z,1823.00
2023-05-14T01:53:09.391Z,1836.00
2023-05-14T01:54:09.424Z,1829.00
2023-05-14T01:55:09.443Z,1822.00
2023-05-14T01:56:09.473Z,1815.00
2023-05-14T01:57:09.501Z,1811.00
2023-05-14T01:58:09.556Z,1811.00
2023-05-14T01:59:09.578Z,1822.00
2023-05-14T02:00:09.610Z,1810.00
2023-05-14T02:01:09.692Z,1776.00
2023-05-14T02:02:09.686Z,1765.00
2023-05-14T02:03:09.740Z,1744.00
2023-05-14T02:04:09.888Z,1730.00
2023-05-14T02:05:09.824Z,1732.00
2023-05-14T02:06:09.830Z,1744.00
2023-05-14T02:07:09.843Z,1715.00
2023-05-14T02:08:09.901Z,1733.00
2023-05-14T02:09:09.924Z,1742.00
2023-05-14T02:10:09.973Z,1745.00
2023-05-14T02:11:09.982Z,1751.00
2023-05-14T02:12:10.016Z,1770.00
2023-05-14T02:13:10.049Z,1774.00
2023-05-14T02:14:10.073Z,1763.00
2023-05-14T02:15:10.141Z,1741.00
2023-05-14T02:16:10.200Z,1740.00
2023-05-14T02:17:10.209Z,1734.00
2023-05-14T02:18:10.273Z,1727.00
2023-05-14T02:19:10.369Z,1739.00
2023-05-14T02:20:10.362Z,1723.00
2023-05-14T02:21:10.330Z,1743.00
2023-05-14T02:22:10.346Z,1756.00
2023-05-14T02:23:10.399Z,1748.00
2023-05-14T02:24:10.407Z,1734.00
2023-05-14T02:25:10.453Z,1728.00
2023-05-14T02:26:10.521Z,1723.00
2023-05-14T02:27:10.523Z,1720.00
2023-05-14T02:28:10.575Z,1726.00
2023-05-14T02:29:10.598Z,1734.00
2023-05-14T02:30:10.617Z,1723.00
2023-05-14T02:31:10.731Z,1717.00
2023-05-14T02:32:10.717Z,1715.00
2023-05-14T02:33:10.823Z,1701.00
2023-05-14T02:34:10.768Z,1693.00
2023-05-14T02:35:10.804Z,1709.00
2023-05-14T02:36:10.832Z,1717.00
2023-05-14T02:37:10.855Z,1702.00
2023-05-14T02:38:10.887Z,1690.00
2023-05-14T02:39:10.936Z,1691.00
2023-05-14T02:40:10.936Z,1717.00
2023-05-14T02:41:10.989Z,1718.00
2023-05-14T02:42:10.999Z,1681.00
2023-05-14T02:43:11.038Z,1692.00
2023-05-14T02:44:11.057Z,1687.00
2023-05-14T02:45:11.096Z,1674.00
2023-05-14T02:46:11.140Z,1680.00
2023-05-14T02:47:11.267Z,1681.00
2023-05-14T02:48:11.247Z,1681.00
2023-05-14T02:49:11.302Z,1675.00
2023-05-14T02:50:11.271Z,1654.00
2023-05-14T02:51:11.301Z,1665.00
2023-05-14T02:52:11.327Z,1676.00
2023-05-14T02:53:11.346Z,1664.00
2023-05-14T02:54:11.378Z,1659.00
2023-05-14T02:55:11.404Z,1666.00
2023-05-14T02:56:11.440Z,1658.00
2023-05-14T02:57:11.475Z,1649.00
2023-05-14T02:58:11.507Z,1664.00
2023-05-14T02:59:11.544Z,1685.00
2023-05-14T03:00:11.570Z,1673.00
2023-05-14T03:01:11.664Z,1681.00
2023-05-14T03:02:11.676Z,1682.00
2023-05-14T03:03:11.709Z,1682.00
2023-05-14T03:04:11.704Z,1660.00
2023-05-14T03:05:11.728Z,1681.00
2023-05-14T03:06:11.768Z,1648.00
2023-05-14T03:07:11.774Z,1652.00
2023-05-14T03:08:11.876Z,1658.00
2023-05-14T03:09:11.837Z,1648.00
2023-05-14T03:10:11.888Z,1650.00
2023-05-14T03:11:11.918Z,1645.00
2023-05-14T03:12:11.932Z,1644.00
2023-05-14T03:13:11.957Z,1661.00
2023-05-14T03:14:12.009Z,1668.00
2023-05-14T03:15:12.016Z,1664.00
2023-05-14T03:16:12.108Z,1644.00
2023-05-14T03:17:12.135Z,1658.00
2023-05-14T03:18:12.137Z,1662.00
2023-05-14T03:19:12.345Z,1665.00
2023-05-14T03:20:12.179Z,1657.00
2023-05-14T03:21:12.210Z,1664.00
2023-05-14T03:22:12.238Z,1646.00
2023-05-14T03:23:12.265Z,1656.00
2023-05-14T03:24:12.302Z,1658.00
2023-05-14T03:25:12.330Z,1651.00
2023-05-14T03:26:12.356Z,1641.00
2023-05-14T03:27:12.379Z,1669.00
2023-05-14T03:28:12.409Z,1656.00
2023-05-14T03:29:12.453Z,1651.00
2023-05-14T03:30:12.494Z,1649.00
2023-05-14T03:31:12.562Z,1652.00
2023-05-14T03:32:12.538Z,1675.00
2023-05-14T03:33:12.639Z,1646.00
2023-05-14T03:34:12.596Z,1651.00
2023-05-14T03:35:12.639Z,1659.00
2023-05-14T03:36:12.663Z,1625.00
2023-05-14T03:37:12.691Z,1628.00
2023-05-14T03:38:12.731Z,1641.00
2023-05-14T03:39:12.766Z,1642.00
2023-05-14T03:40:12.779Z,1647.00
2023-05-14T03:41:12.838Z,1633.00
2023-05-14T03:42:12.860Z,1639.00
2023-05-14T03:43:12.893Z,1637.00
2023-05-14T03:44:12.916Z,1634.00
2023-05-14T03:45:12.945Z,1640.00
2023-05-14T03:46:12.976Z,1622.00
2023-05-14T03:47:13.016Z,1625.00
2023-05-14T03:48:13.128Z,1616.00
2023-05-14T03:49:13.049Z,1621.00
2023-05-14T03:50:13.087Z,1628.00
2023-05-14T03:51:13.112Z,1609.00
2023-05-14T03:52:13.162Z,1604.00
2023-05-14T03:53:13.175Z,1631.00
2023-05-14T03:54:13.202Z,1599.00
2023-05-14T03:55:13.231Z,1589.00
2023-05-14T03:56:13.270Z,1586.00
2023-05-14T03:57:13.313Z,1591.00
2023-05-14T03:58:13.319Z,1594.00
2023-05-14T03:59:13.361Z,1592.00
2023-05-14T04:00:13.385Z,1604.00
2023-05-14T04:01:13.437Z,1591.00
2023-05-14T04:02:13.585Z,1591.00
2023-05-14T04:03:13.575Z,1602.00
2023-05-14T04:04:13.571Z,1593.00
2023-05-14T04:05:13.546Z,1603.00
2023-05-14T04:06:13.579Z,1596.00
2023-05-14T04:07:13.590Z,1611.00
2023-05-14T04:08:13.622Z,1601.00
2023-05-14T04:09:13.644Z,1586.00
2023-05-14T04:10:13.689Z,1586.00
2023-05-14T04:11:13.725Z,1586.00
2023-05-14T04:12:13.753Z,1577.00
2023-05-14T04:13:13.766Z,1584.00
2023-05-14T04:14:13.797Z,1586.00
2023-05-14T04:15:13.847Z,1593.00
2023-05-14T04:16:13.913Z,1580.00
2023-05-14T04:17:13.958Z,1573.00
2023-05-14T04:18:14.075Z,1574.00
2023-05-14T04:19:14.022Z,1570.00
2023-05-14T04:20:13.981Z,1571.00
2023-05-14T04:21:14.024Z,1559.00
2023-05-14T04:22:14.039Z,1539.00
2023-05-14T04:23:14.079Z,1534.00
2023-05-14T04:24:14.104Z,1530.00
2023-05-14T04:25:14.176Z,1509.00
2023-05-14T04:26:14.170Z,1511.00
2023-05-14T04:27:14.203Z,1502.00
2023-05-14T04:28:14.252Z,1502.00
2023-05-14T04:29:14.254Z,1502.00
2023-05-14T04:30:14.298Z,1504.00
2023-05-14T04:31:14.335Z,1507.00
2023-05-14T04:32:14.337Z,1515.00
2023-05-14T04:33:14.370Z,1484.00
2023-05-14T04:34:14.414Z,1504.00
2023-05-14T04:35:14.444Z,1496.00
2023-05-14T04:36:14.473Z,1504.00
2023-05-14T04:37:14.528Z,1502.00
2023-05-14T04:38:14.556Z,1484.00
2023-05-14T04:39:14.592Z,1491.00
2023-05-14T04:40:14.598Z,1489.00
2023-05-14T04:41:14.669Z,1479.00
2023-05-14T04:42:14.655Z,1481.00
2023-05-14T04:43:14.736Z,1503.00
2023-05-14T04:44:14.719Z,1506.00
2023-05-14T04:45:14.852Z,1479.00
2023-05-14T04:46:14.828Z,1482.00
2023-05-14T04:47:14.823Z,1466.00
2023-05-14T04:48:14.833Z,1457.00
2023-05-14T04:49:14.876Z,1458.00
2023-05-14T04:50:14.898Z,1458.00
2023-05-14T04:51:14.930Z,1447.00
2023-05-14T04:52:14.957Z,1458.00
2023-05-14T04:53:14.982Z,1434.00
2023-05-14T04:54:15.043Z,1438.00
2023-05-14T04:55:15.058Z,1450.00
2023-05-14T04:56:15.093Z,1445.00
2023-05-14T04:57:15.133Z,1446.00
2023-05-14T04:58:15.134Z,1441.00
2023-05-14T04:59:15.183Z,1431.00
2023-05-14T05:00:15.216Z,1442.00
2023-05-14T05:01:15.369Z,1431.00
2023-05-14T05:02:15.271Z,1430.00
2023-05-14T05:03:15.390Z,1426.00
2023-05-14T05:04:15.525Z,1407.00
2023-05-14T05:05:15.378Z,1421.00
2023-05-14T05:06:15.410Z,1403.00
2023-05-14T05:07:15.425Z,1422.00
2023-05-14T05:08:15.456Z,1420.00
2023-05-14T05:09:15.482Z,1415.00
2023-05-14T05:10:15.525Z,1446.00
2023-05-14T05:11:15.566Z,1427.00
2023-05-14T05:12:15.589Z,1425.00
2023-05-14T05:13:15.597Z,1410.00
2023-05-14T05:14:15.643Z,1406.00
2023-05-14T05:15:15.676Z,1417.00
2023-05-14T05:16:15.816Z,1406.00
2023-05-14T05:17:15.740Z,1414.00
2023-05-14T05:18:15.766Z,1403.00
2023-05-14T05:19:15.900Z,1401.00
2023-05-14T05:20:15.846Z,1384.00
2023-05-14T05:21:15.870Z,1381.00
2023-05-14T05:22:15.882Z,1380.00
2023-05-14T05:23:15.924Z,1381.00
2023-05-14T05:24:15.947Z,1380.00
2023-05-14T05:25:16.017Z,1380.00
2023-05-14T05:26:16.011Z,1369.00
2023-05-14T05:27:16.054Z,1374.00
2023-05-14T05:28:16.067Z,1385.00
2023-05-14T05:29:16.110Z,1389.00
2023-05-14T05:30:16.168Z,1389.00
2023-05-14T05:31:17.636Z,1369.00
2023-05-14T05:32:16.167Z,1388.00
2023-05-14T05:33:16.182Z,1377.00
2023-05-14T05:34:16.156Z,1357.00
2023-05-14T05:35:16.168Z,1349.00
2023-05-14T05:36:16.131Z,1321.00
2023-05-14T05:37:16.131Z,1328.00
2023-05-14T05:38:16.124Z,1334.00
2023-05-14T05:39:16.122Z,1334.00
2023-05-14T05:40:16.103Z,1311.00
2023-05-14T05:41:16.095Z,1310.00
2023-05-14T05:42:16.096Z,1302.00
2023-05-14T05:43:16.086Z,1284.00
2023-05-14T05:44:16.078Z,1281.00
2023-05-14T05:45:16.059Z,1299.00
2023-05-14T05:46:16.068Z,1286.00
2023-05-14T05:47:16.056Z,1285.00
2023-05-14T05:48:16.044Z,1279.00
2023-05-14T05:49:16.031Z,1280.00
2023-05-14T05:50:16.376Z,1279.00
2023-05-14T05:51:16.017Z,1294.00
2023-05-14T05:52:16.007Z,1286.00
2023-05-14T05:53:16.011Z,1295.00
2023-05-14T05:54:16.001Z,1324.00
2023-05-14T05:55:15.989Z,1303.00
2023-05-14T05:56:16.006Z,1310.00
2023-05-14T05:57:15.986Z,1283.00
2023-05-14T05:58:15.977Z,1286.00
2023-05-14T05:59:15.956Z,1282.00
2023-05-14T06:00:15.943Z,1300.00
2023-05-14T06:01:15.959Z,1280.00
2023-05-14T06:02:16.043Z,1282.00
2023-05-14T06:03:15.949Z,1264.00
2023-05-14T06:04:15.914Z,1281.00
2023-05-14T06:05:15.971Z,1287.00
2023-05-14T06:06:15.919Z,1270.00
2023-05-14T06:07:15.913Z,1287.00
2023-05-14T06:08:15.902Z,1274.00
2023-05-14T06:09:15.891Z,1271.00
2023-05-14T06:10:15.880Z,1237.00
2023-05-14T06:11:15.868Z,1264.00
2023-05-14T06:12:15.868Z,1231.00
2023-05-14T06:13:15.842Z,1249.00
2023-05-14T06:14:15.833Z,1218.00
2023-05-14T06:15:15.854Z,1231.00
2023-05-14T06:16:15.873Z,1218.00
2023-05-14T06:17:15.826Z,1208.00
2023-05-14T06:18:15.818Z,1188.00
2023-05-14T06:19:16.000Z,1188.00
2023-05-14T06:20:15.816Z,1172.00
2023-05-14T06:21:15.783Z,1143.00
2023-05-14T06:22:15.779Z,1179.00
2023-05-14T06:23:15.770Z,1154.00
2023-05-14T06:24:15.758Z,1154.00
2023-05-14T06:25:15.757Z,1155.00
2023-05-14T06:26:15.761Z,1148.00
2023-05-14T06:27:15.767Z,1159.00
2023-05-14T06:28:15.750Z,1152.00
2023-05-14T06:29:15.739Z,1168.00
2023-05-14T06:30:15.737Z,1161.00
2023-05-14T06:31:15.744Z,1136.00
2023-05-14T06:32:15.855Z,1122.00
2023-05-14T06:33:15.796Z,1132.00
2023-05-14T06:34:15.814Z,1121.00
2023-05-14T06:35:15.855Z,1127.00
2023-05-14T06:36:15.916Z,1157.00
2023-05-14T06:37:15.895Z,1146.00
2023-05-14T06:38:15.938Z,1162.00
2023-05-14T06:39:15.957Z,1151.00
2023-05-14T06:40:15.974Z,1149.00
2023-05-14T06:41:16.022Z,1138.00
2023-05-14T06:42:16.025Z,1118.00
2023-05-14T06:43:16.046Z,1098.00
2023-05-14T06:44:16.085Z,1090.00
2023-05-14T06:45:16.120Z,1104.00
2023-05-14T06:46:16.127Z,1102.00
2023-05-14T06:47:16.157Z,1097.00
2023-05-14T06:48:16.208Z,1125.00
2023-05-14T06:49:16.246Z,1120.00
2023-05-14T06:50:16.215Z,1116.00
2023-05-14T06:51:16.250Z,1118.00
2023-05-14T06:52:16.264Z,1103.00
2023-05-14T06:53:16.311Z,1093.00
2023-05-14T06:54:16.302Z,1099.00
2023-05-14T06:55:16.355Z,1080.00
2023-05-14T06:56:16.368Z,1081.00
2023-05-14T06:57:16.369Z,1092.00
2023-05-14T06:58:16.371Z,1084.00
2023-05-14T06:59:16.385Z,1084.00
2023-05-14T07:00:16.388Z,1090.00
2023-05-14T07:01:16.522Z,1063.00
2023-05-14T07:02:16.416Z,1074.00
2023-05-14T07:03:16.453Z,1082.00
2023-05-14T07:04:16.506Z,1065.00
2023-05-14T07:05:16.497Z,1081.00
2023-05-14T07:06:16.459Z,1076.00
2023-05-14T07:07:16.493Z,1068.00
2023-05-14T07:08:16.488Z,1095.00
2023-05-14T07:09:16.524Z,1078.00
2023-05-14T07:10:16.524Z,1087.00
2023-05-14T07:11:16.540Z,1098.00
2023-05-14T07:12:16.531Z,1090.00
2023-05-14T07:13:16.537Z,1103.00
2023-05-14T07:14:16.564Z,1094.00
2023-05-14T07:15:16.591Z,1089.00
2023-05-14T07:16:16.580Z,1100.00
2023-05-14T07:17:16.728Z,1095.00
2023-05-14T07:18:16.668Z,1116.00
2023-05-14T07:19:16.666Z,1113.00
2023-05-14T07:20:16.573Z,1102.00
2023-05-14T07:21:16.586Z,1105.00
2023-05-14T07:22:16.582Z,1125.00
2023-05-14T07:24:16.607Z,1101.00
2023-05-14T07:25:16.594Z,1098.00
2023-05-14T07:26:16.608Z,1096.00
2023-05-14T07:27:16.608Z,1093.00
2023-05-14T07:28:16.584Z,1108.00
2023-05-14T07:29:16.581Z,1079.00
2023-05-14T07:30:16.597Z,1070.00
2023-05-14T07:31:16.684Z,1065.00
2023-05-14T07:32:16.615Z,1052.00
2023-05-14T07:33:16.610Z,1077.00
2023-05-14T07:34:16.627Z,1047.00
2023-05-14T07:35:16.635Z,1037.00
2023-05-14T07:36:16.627Z,1046.00
2023-05-14T07:37:16.669Z,1003.00
2023-05-14T07:38:16.656Z,1018.00
2023-05-14T07:39:16.683Z,1004.00
2023-05-14T07:40:16.690Z,977.00
2023-05-14T07:41:16.716Z,983.00
2023-05-14T07:42:27.950Z,968.00
2023-05-14T07:43:17.725Z,969.00
2023-05-14T07:44:16.721Z,970.00
2023-05-14T07:45:16.694Z,955.00
2023-05-14T07:46:16.707Z,961.00
2023-05-14T07:47:16.761Z,971.00
2023-05-14T07:48:16.710Z,942.00
2023-05-14T07:49:16.668Z,918.00
2023-05-14T07:50:16.710Z,910.00
2023-05-14T07:51:16.688Z,920.00
2023-05-14T07:52:16.705Z,864.00
2023-05-14T07:53:16.768Z,919.00
2023-05-14T07:54:16.784Z,900.00
2023-05-14T07:55:16.882Z,900.00
2023-05-14T07:56:16.969Z,876.00
2023-05-14T07:57:16.982Z,902.00
2023-05-14T07:58:17.022Z,901.00
2023-05-14T07:59:17.076Z,909.00
2023-05-14T08:00:17.134Z,904.00
2023-05-14T08:01:17.148Z,913.00
2023-05-14T08:02:17.437Z,897.00
2023-05-14T08:03:17.334Z,899.00
2023-05-14T08:04:17.336Z,869.00
2023-05-14T08:05:17.360Z,889.00
2023-05-14T08:06:17.469Z,837.00
2023-05-14T08:07:17.513Z,832.00
2023-05-14T08:08:17.551Z,848.00
2023-05-14T08:09:17.610Z,852.00
2023-05-14T08:10:17.665Z,792.00
2023-05-14T08:11:17.781Z,757.00
2023-05-14T08:12:17.768Z,783.00
2023-05-14T08:13:17.827Z,768.00
2023-05-14T08:14:17.901Z,806.00
2023-05-14T08:15:17.965Z,759.00
2023-05-14T08:16:18.059Z,763.00
2023-05-14T08:17:18.176Z,744.00
2023-05-14T08:18:18.130Z,766.00
2023-05-14T08:19:18.177Z,780.00
2023-05-14T08:20:18.228Z,798.00
2023-05-14T08:21:18.278Z,735.00
2023-05-14T08:22:18.316Z,732.00
2023-05-14T08:23:18.365Z,739.00
2023-05-14T08:24:18.396Z,779.00
2023-05-14T08:25:18.435Z,671.00
2023-05-14T08:26:18.481Z,708.00
2023-05-14T08:27:18.516Z,745.00
2023-05-14T08:28:18.528Z,795.00
2023-05-14T08:29:18.577Z,789.00
2023-05-14T08:30:18.615Z,801.00
2023-05-14T08:31:18.704Z,771.00
2023-05-14T08:32:23.472Z,812.00
2023-05-14T08:33:19.643Z,813.00
2023-05-14T08:34:18.668Z,822.00
2023-05-14T08:35:18.641Z,837.00
2023-05-14T08:36:18.622Z,830.00
2023-05-14T08:37:18.615Z,904.00
2023-05-14T08:38:18.623Z,912.00
2023-05-14T08:39:18.607Z,881.00
2023-05-14T08:40:18.591Z,833.00
2023-05-14T08:41:18.606Z,770.00
2023-05-14T08:42:18.603Z,889.00
2023-05-14T08:43:18.593Z,865.00
2023-05-14T08:44:18.580Z,736.00
2023-05-14T08:45:18.578Z,713.00
2023-05-14T08:46:18.577Z,770.00
2023-05-14T08:47:18.558Z,643.00
2023-05-14T08:48:18.624Z,764.00
2023-05-14T08:49:18.542Z,768.00
2023-05-14T08:50:19.914Z,708.00
2023-05-14T08:51:18.517Z,711.00
2023-05-14T08:52:18.524Z,652.00
2023-05-14T08:53:18.512Z,618.00
2023-05-14T08:54:18.526Z,645.00
2023-05-14T08:55:18.490Z,610.00
2023-05-14T08:56:18.496Z,687.00
2023-05-14T08:57:18.495Z,696.00
2023-05-14T08:58:18.487Z,676.00
2023-05-14T08:59:18.458Z,624.00
2023-05-14T09:00:18.466Z,663.00
2023-05-14T09:01:18.566Z,658.00
2023-05-14T09:02:18.454Z,681.00
2023-05-14T09:03:18.492Z,741.00
2023-05-14T09:04:18.562Z,883.00
2023-05-14T09:05:18.432Z,914.00
2023-05-14T09:06:18.405Z,873.00
2023-05-14T09:07:18.421Z,900.00
2023-05-14T09:08:18.392Z,993.00
2023-05-14T09:09:18.389Z,996.00
2023-05-14T09:10:18.397Z,1044.00
2023-05-14T09:11:18.393Z,966.00
2023-05-14T09:12:18.377Z,1016.00
2023-05-14T09:13:18.368Z,910.00
2023-05-14T09:14:18.370Z,957.00
2023-05-14T09:15:18.372Z,1020.00
2023-05-14T09:16:18.410Z,1038.00
2023-05-14T09:17:18.358Z,996.00
2023-05-14T09:18:18.354Z,1002.00
2023-05-14T09:19:18.396Z,1040.00
2023-05-14T09:20:18.329Z,905.00
2023-05-14T09:21:18.307Z,888.00
2023-05-14T09:22:18.299Z,807.00
2023-05-14T09:23:18.298Z,947.00
2023-05-14T09:24:18.300Z,1020.00
2023-05-14T09:25:18.274Z,1018.00
2023-05-14T09:26:18.269Z,1016.00
2023-05-14T09:27:18.284Z,1000.00
2023-05-14T09:28:18.276Z,910.00
2023-05-14T09:29:18.266Z,1004.00
2023-05-14T09:30:18.260Z,999.00
2023-05-14T09:31:18.252Z,1002.00
2023-05-14T09:32:18.238Z,956.00
2023-05-14T09:33:18.239Z,835.00
2023-05-14T09:34:18.224Z,936.00
2023-05-14T09:35:18.223Z,888.00
2023-05-14T09:36:18.211Z,803.00
2023-05-14T09:37:18.206Z,618.00
2023-05-14T09:38:18.197Z,561.00
2023-05-14T09:39:18.187Z,563.00
2023-05-14T09:40:18.192Z,615.00
2023-05-14T09:41:18.154Z,566.00
2023-05-14T09:42:18.222Z,576.00
2023-05-14T09:43:18.277Z,559.00
2023-05-14T09:44:18.339Z,544.00
2023-05-14T09:45:18.422Z,563.00
2023-05-14T09:46:18.488Z,522.00
2023-05-14T09:47:18.566Z,551.00
2023-05-14T09:48:18.623Z,538.00
2023-05-14T09:49:18.617Z,553.00
2023-05-14T09:50:18.710Z,591.00
2023-05-14T09:51:18.781Z,582.00
2023-05-14T09:52:18.822Z,547.00
2023-05-14T09:53:18.884Z,576.00
2023-05-14T09:54:18.921Z,585.00
2023-05-14T09:55:18.988Z,606.00
2023-05-14T09:56:19.076Z,588.00
2023-05-14T09:57:19.139Z,596.00
2023-05-14T09:58:19.181Z,635.00
2023-05-14T09:59:19.259Z,604.00
2023-05-14T10:00:19.313Z,596.00
2023-05-14T10:01:19.388Z,538.00
2023-05-14T10:02:19.404Z,566.00
2023-05-14T10:03:20.166Z,573.00
2023-05-14T10:04:19.592Z,570.00
2023-05-14T10:05:19.574Z,616.00
2023-05-14T10:06:19.648Z,578.00
2023-05-14T10:07:19.700Z,563.00
2023-05-14T10:08:19.757Z,602.00
2023-05-14T10:09:19.838Z,571.00
2023-05-14T10:10:19.940Z,551.00
2023-05-14T10:11:19.919Z,521.00
2023-05-14T10:12:20.000Z,515.00
2023-05-14T10:13:20.049Z,516.00
2023-05-14T10:14:20.100Z,517.00
2023-05-14T10:15:20.151Z,500.00
2023-05-14T10:16:20.294Z,524.00
2023-05-14T10:17:20.278Z,533.00
2023-05-14T10:18:20.313Z,540.00
2023-05-14T10:19:20.513Z,504.00
2023-05-14T10:20:20.444Z,527.00
2023-05-14T10:21:20.478Z,565.00
2023-05-14T10:22:20.538Z,569.00
2023-05-14T10:23:20.598Z,564.00
2023-05-14T10:24:20.642Z,523.00
2023-05-14T10:25:20.703Z,523.00
2023-05-14T10:26:23.106Z,531.00
2023-05-14T10:27:20.755Z,533.00
2023-05-14T10:28:20.756Z,511.00
2023-05-14T10:29:20.759Z,536.00
2023-05-14T10:30:20.729Z,507.00
2023-05-14T10:31:20.742Z,525.00
2023-05-14T10:32:20.758Z,538.00
2023-05-14T10:33:20.721Z,517.00
2023-05-14T10:34:20.699Z,500.00
2023-05-14T10:35:20.906Z,517.00
2023-05-14T10:36:20.710Z,530.00
2023-05-14T10:37:20.708Z,531.00
2023-05-14T10:38:20.686Z,521.00
2023-05-14T10:39:20.784Z,570.00
2023-05-14T10:40:20.671Z,547.00
2023-05-14T10:41:20.652Z,580.00
2023-05-14T10:42:20.653Z,538.00
2023-05-14T10:43:20.648Z,559.00
2023-05-14T10:44:20.644Z,601.00
2023-05-14T10:45:20.635Z,581.00
2023-05-14T10:46:20.674Z,587.00
2023-05-14T10:47:20.619Z,561.00
2023-05-14T10:48:20.643Z,561.00
2023-05-14T10:49:28.829Z,550.00
2023-05-14T10:50:21.732Z,551.00
2023-05-14T10:51:20.675Z,552.00
2023-05-14T10:52:20.618Z,551.00
2023-05-14T10:53:20.569Z,567.00
2023-05-14T10:54:20.564Z,561.00
2023-05-14T10:55:20.575Z,538.00
2023-05-14T10:56:20.553Z,551.00
2023-05-14T10:57:20.584Z,571.00
2023-05-14T10:58:20.588Z,540.00
2023-05-14T10:59:20.649Z,527.00
2023-05-14T11:00:20.714Z,538.00
2023-05-14T11:01:20.813Z,530.00
2023-05-14T11:02:20.857Z,510.00
2023-05-14T11:03:20.935Z,541.00
2023-05-14T11:04:20.941Z,517.00
2023-05-14T11:05:20.986Z,513.00
2023-05-14T11:06:21.043Z,503.00
2023-05-14T11:07:21.082Z,512.00
2023-05-14T11:08:22.502Z,545.00
2023-05-14T11:09:21.104Z,536.00
2023-05-14T11:10:21.186Z,519.00
2023-05-14T11:11:21.104Z,542.00
2023-05-14T11:12:21.085Z,532.00
2023-05-14T11:13:21.122Z,526.00
2023-05-14T11:14:21.063Z,529.00
2023-05-14T11:15:21.071Z,532.00
2023-05-14T11:16:23.550Z,551.00
2023-05-14T11:17:21.080Z,529.00
2023-05-14T11:18:21.039Z,539.00
2023-05-14T11:19:21.052Z,511.00
2023-05-14T11:20:21.066Z,519.00
2023-05-14T11:21:21.039Z,524.00
2023-05-14T11:22:21.014Z,504.00
2023-05-14T11:23:21.064Z,512.00
2023-05-14T11:24:21.010Z,523.00
2023-05-14T11:25:20.994Z,528.00
2023-05-14T11:26:21.904Z,554.00
2023-05-14T11:27:20.973Z,524.00
2023-05-14T11:28:20.993Z,528.00
2023-05-14T11:29:20.959Z,526.00
2023-05-14T11:30:21.040Z,508.00
2023-05-14T11:31:20.993Z,509.00
2023-05-14T11:32:21.141Z,522.00
2023-05-14T11:33:20.947Z,500.00
2023-05-14T11:34:20.946Z,510.00
2023-05-14T11:35:20.943Z,519.00
2023-05-14T11:36:20.926Z,530.00
2023-05-14T11:37:20.910Z,545.00
2023-05-14T11:38:20.903Z,531.00
2023-05-14T11:39:20.889Z,508.00
2023-05-14T11:40:20.891Z,517.00
2023-05-14T11:41:20.969Z,511.00
2023-05-14T11:42:20.881Z,510.00
2023-05-14T11:43:20.882Z,530.00
2023-05-14T11:44:20.869Z,504.00
2023-05-14T11:45:20.863Z,515.00
2023-05-14T11:46:20.890Z,510.00
2023-05-14T11:47:20.844Z,505.00
2023-05-14T11:48:20.841Z,511.00
2023-05-14T11:49:20.850Z,500.00
2023-05-14T11:50:20.809Z,503.00
2023-05-14T11:51:20.811Z,498.00
2023-05-14T11:52:20.807Z,514.00
2023-05-14T11:53:20.808Z,513.00
2023-05-14T11:54:20.785Z,519.00
2023-05-14T11:55:20.798Z,517.00
2023-05-14T11:56:20.766Z,500.00
2023-05-14T11:57:20.759Z,527.00
2023-05-14T11:58:20.770Z,526.00
2023-05-14T11:59:20.741Z,543.00
2023-05-14T12:00:20.744Z,530.00
2023-05-14T12:01:20.734Z,524.00
2023-05-14T12:02:20.766Z,540.00
2023-05-14T12:03:20.947Z,553.00
2023-05-14T12:04:20.781Z,552.00
2023-05-14T12:05:20.714Z,555.00
2023-05-14T12:06:20.690Z,574.00
2023-05-14T12:07:20.692Z,590.00
2023-05-14T12:08:20.691Z,611.00
2023-05-14T12:09:20.677Z,610.00
2023-05-14T12:10:20.682Z,620.00
2023-05-14T12:11:20.690Z,632.00
2023-05-14T12:12:20.668Z,633.00
2023-05-14T12:13:20.649Z,633.00
2023-05-14T12:14:20.649Z,651.00